DBV weather

Dubrovnik Airport
Dubrovnik, Dubrovnik-Neretva County, Croatia

Public forecast

Using degrees Celsius for public forecast. Weather courtesy of forecast.io.

Current aviation weather report (METAR) for Dubrovnik Airport

Retrieved 2019/12/11 19:30 UTC (0 seconds ago):

LDDU 111930Z 04009KT 340V080 CAVOK 10/00 Q1008 NOSIG

Aviation forecast (TAF) for Dubrovnik Airport

Retrieved 2019/12/11 18:27 UTC (36 minutes ago):

TAF TAF LDDU 111725Z 1118/1218 02015KT CAVOK TX11/1118Z TN07/1205Z BECMG 1209/1211 14010KT TEMPO 1209/1218 RA PROB30 TEMPO 1212/1215 BKN010